sensor_id;sensor_type;location;lat;lon;timestamp;P1;durP1;ratioP1;P2;durP2;ratioP2
35677;SDS011;21791;42.828;74.582;2022-12-16T00:00:25;1.80;;;1.27;;
35677;SDS011;21791;42.828;74.582;2022-12-16T00:02:52;2.38;;;1.40;;
35677;SDS011;21791;42.828;74.582;2022-12-16T00:05:18;2.13;;;1.13;;
35677;SDS011;21791;42.828;74.582;2022-12-16T00:07:46;4.10;;;1.30;;
35677;SDS011;21791;42.828;74.582;2022-12-16T00:10:13;3.42;;;1.38;;
35677;SDS011;21791;42.828;74.582;2022-12-16T00:12:40;2.22;;;1.45;;
35677;SDS011;21791;42.828;74.582;2022-12-16T00:15:06;1.95;;;1.48;;
35677;SDS011;21791;42.828;74.582;2022-12-16T00:17:33;2.67;;;1.52;;
35677;SDS011;21791;42.828;74.582;2022-12-16T00:20:01;2.28;;;1.48;;
35677;SDS011;21791;42.828;74.582;2022-12-16T00:22:28;2.95;;;1.40;;
35677;SDS011;21791;42.828;74.582;2022-12-16T00:24:55;4.32;;;1.77;;
35677;SDS011;21791;42.828;74.582;2022-12-16T00:27:21;3.20;;;1.75;;
35677;SDS011;21791;42.828;74.582;2022-12-16T00:29:48;3.33;;;2.05;;
35677;SDS011;21791;42.828;74.582;2022-12-16T00:32:14;4.35;;;2.20;;
35677;SDS011;21791;42.828;74.582;2022-12-16T00:34:41;3.83;;;2.58;;
35677;SDS011;21791;42.828;74.582;2022-12-16T00:37:07;7.35;;;3.30;;
35677;SDS011;21791;42.828;74.582;2022-12-16T00:39:37;5.88;;;3.42;;
35677;SDS011;21791;42.828;74.582;2022-12-16T00:42:04;6.10;;;3.80;;
35677;SDS011;21791;42.828;74.582;2022-12-16T00:44:30;5.65;;;3.63;;
35677;SDS011;21791;42.828;74.582;2022-12-16T00:46:57;5.57;;;3.38;;
35677;SDS011;21791;42.828;74.582;2022-12-16T00:49:23;7.00;;;4.07;;
35677;SDS011;21791;42.828;74.582;2022-12-16T00:51:50;6.03;;;4.07;;
35677;SDS011;21791;42.828;74.582;2022-12-16T00:54:17;9.00;;;4.07;;
35677;SDS011;21791;42.828;74.582;2022-12-16T00:56:43;7.78;;;3.88;;
35677;SDS011;21791;42.828;74.582;2022-12-16T00:59:10;8.70;;;4.45;;
35677;SDS011;21791;42.828;74.582;2022-12-16T01:01:36;7.05;;;3.85;;
35677;SDS011;21791;42.828;74.582;2022-12-16T01:04:03;5.78;;;3.42;;
35677;SDS011;21791;42.828;74.582;2022-12-16T01:06:29;5.72;;;3.53;;
35677;SDS011;21791;42.828;74.582;2022-12-16T01:08:56;8.07;;;3.78;;
35677;SDS011;21791;42.828;74.582;2022-12-16T01:11:22;6.45;;;3.88;;
35677;SDS011;21791;42.828;74.582;2022-12-16T01:13:49;5.38;;;3.30;;
35677;SDS011;21791;42.828;74.582;2022-12-16T01:16:16;8.70;;;4.75;;
35677;SDS011;21791;42.828;74.582;2022-12-16T01:18:43;10.57;;;3.30;;
35677;SDS011;21791;42.828;74.582;2022-12-16T01:21:10;5.28;;;2.95;;
35677;SDS011;21791;42.828;74.582;2022-12-16T01:23:41;6.65;;;3.42;;
35677;SDS011;21791;42.828;74.582;2022-12-16T01:26:08;7.45;;;3.17;;
35677;SDS011;21791;42.828;74.582;2022-12-16T01:28:39;7.03;;;3.35;;
35677;SDS011;21791;42.828;74.582;2022-12-16T01:31:06;6.03;;;3.35;;
35677;SDS011;21791;42.828;74.582;2022-12-16T01:33:32;8.93;;;3.83;;
35677;SDS011;21791;42.828;74.582;2022-12-16T01:36:08;6.03;;;3.25;;
35677;SDS011;21791;42.828;74.582;2022-12-16T01:38:34;8.52;;;3.60;;
35677;SDS011;21791;42.828;74.582;2022-12-16T01:41:02;7.15;;;3.67;;
35677;SDS011;21791;42.828;74.582;2022-12-16T01:43:30;11.02;;;3.40;;
35677;SDS011;21791;42.828;74.582;2022-12-16T01:51:29;6.72;;;3.40;;
35677;SDS011;21791;42.828;74.582;2022-12-16T01:54:25;10.50;;;3.78;;
35677;SDS011;21791;42.828;74.582;2022-12-16T01:56:54;9.27;;;3.67;;
35677;SDS011;21791;42.828;74.582;2022-12-16T01:59:24;6.70;;;3.10;;
35677;SDS011;21791;42.828;74.582;2022-12-16T02:01:54;8.60;;;2.75;;
35677;SDS011;21791;42.828;74.582;2022-12-16T02:04:22;9.43;;;3.40;;
35677;SDS011;21791;42.828;74.582;2022-12-16T02:06:48;8.75;;;3.50;;
35677;SDS011;21791;42.828;74.582;2022-12-16T02:09:15;10.68;;;3.35;;
35677;SDS011;21791;42.828;74.582;2022-12-16T02:11:47;6.75;;;4.03;;
35677;SDS011;21791;42.828;74.582;2022-12-16T02:14:28;9.25;;;4.40;;
35677;SDS011;21791;42.828;74.582;2022-12-16T02:17:19;10.73;;;3.95;;
35677;SDS011;21791;42.828;74.582;2022-12-16T02:25:21;7.50;;;3.45;;
35677;SDS011;21791;42.828;74.582;2022-12-16T02:36:07;9.35;;;3.70;;
35677;SDS011;21791;42.828;74.582;2022-12-16T02:39:04;16.58;;;4.50;;
35677;SDS011;21791;42.828;74.582;2022-12-16T02:47:27;17.83;;;6.78;;
35677;SDS011;21791;42.828;74.582;2022-12-16T02:49:54;13.93;;;5.75;;
35677;SDS011;21791;42.828;74.582;2022-12-16T02:52:23;18.55;;;7.47;;
35677;SDS011;21791;42.828;74.582;2022-12-16T02:54:53;24.63;;;8.65;;
35677;SDS011;21791;42.828;74.582;2022-12-16T03:00:37;14.25;;;7.13;;
35677;SDS011;21791;42.828;74.582;2022-12-16T03:03:13;8.77;;;5.45;;
35677;SDS011;21791;42.828;74.582;2022-12-16T03:05:47;14.70;;;5.90;;
35677;SDS011;21791;42.828;74.582;2022-12-16T03:08:35;17.45;;;6.07;;
35677;SDS011;21791;42.828;74.582;2022-12-16T03:11:05;9.18;;;4.82;;
35677;SDS011;21791;42.828;74.582;2022-12-16T03:13:36;18.05;;;7.47;;
35677;SDS011;21791;42.828;74.582;2022-12-16T03:16:07;23.90;;;9.02;;
35677;SDS011;21791;42.828;74.582;2022-12-16T03:18:37;30.70;;;10.35;;
35677;SDS011;21791;42.828;74.582;2022-12-16T03:21:08;10.40;;;5.90;;
35677;SDS011;21791;42.828;74.582;2022-12-16T03:23:46;16.40;;;5.40;;
35677;SDS011;21791;42.828;74.582;2022-12-16T03:26:20;11.45;;;6.00;;
35677;SDS011;21791;42.828;74.582;2022-12-16T03:28:51;11.02;;;4.90;;
35677;SDS011;21791;42.828;74.582;2022-12-16T03:34:14;20.52;;;6.30;;
35677;SDS011;21791;42.828;74.582;2022-12-16T03:36:49;9.98;;;5.80;;
35677;SDS011;21791;42.828;74.582;2022-12-16T03:39:19;13.48;;;6.18;;
35677;SDS011;21791;42.828;74.582;2022-12-16T03:41:48;15.95;;;6.03;;
35677;SDS011;21791;42.828;74.582;2022-12-16T03:44:20;14.15;;;6.43;;
35677;SDS011;21791;42.828;74.582;2022-12-16T03:46:48;14.30;;;6.20;;
35677;SDS011;21791;42.828;74.582;2022-12-16T03:49:14;12.55;;;5.85;;
35677;SDS011;21791;42.828;74.582;2022-12-16T03:51:41;15.88;;;6.10;;
35677;SDS011;21791;42.828;74.582;2022-12-16T03:54:08;7.57;;;4.90;;
35677;SDS011;21791;42.828;74.582;2022-12-16T03:56:34;24.33;;;7.90;;
35677;SDS011;21791;42.828;74.582;2022-12-16T03:59:01;13.20;;;6.90;;
35677;SDS011;21791;42.828;74.582;2022-12-16T04:01:28;23.48;;;10.15;;
35677;SDS011;21791;42.828;74.582;2022-12-16T04:03:55;17.50;;;9.40;;
35677;SDS011;21791;42.828;74.582;2022-12-16T04:06:22;18.08;;;8.95;;
35677;SDS011;21791;42.828;74.582;2022-12-16T04:08:48;15.40;;;9.60;;
35677;SDS011;21791;42.828;74.582;2022-12-16T04:11:15;15.05;;;8.32;;
35677;SDS011;21791;42.828;74.582;2022-12-16T04:14:00;22.55;;;8.63;;
35677;SDS011;21791;42.828;74.582;2022-12-16T04:16:44;18.50;;;7.55;;
35677;SDS011;21791;42.828;74.582;2022-12-16T04:19:30;15.93;;;7.22;;
35677;SDS011;21791;42.828;74.582;2022-12-16T04:22:28;17.05;;;6.30;;
35677;SDS011;21791;42.828;74.582;2022-12-16T04:25:23;13.52;;;6.72;;
35677;SDS011;21791;42.828;74.582;2022-12-16T04:27:56;18.10;;;7.63;;
35677;SDS011;21791;42.828;74.582;2022-12-16T04:30:42;17.95;;;6.65;;
35677;SDS011;21791;42.828;74.582;2022-12-16T04:33:09;23.65;;;8.27;;
35677;SDS011;21791;42.828;74.582;2022-12-16T04:35:57;14.13;;;6.60;;
35677;SDS011;21791;42.828;74.582;2022-12-16T04:38:42;12.60;;;6.70;;
35677;SDS011;21791;42.828;74.582;2022-12-16T04:41:28;14.35;;;7.63;;
35677;SDS011;21791;42.828;74.582;2022-12-16T04:44:13;18.60;;;8.63;;
35677;SDS011;21791;42.828;74.582;2022-12-16T04:46:58;19.10;;;8.98;;
35677;SDS011;21791;42.828;74.582;2022-12-16T04:49:43;17.45;;;9.27;;
35677;SDS011;21791;42.828;74.582;2022-12-16T04:52:44;19.35;;;8.80;;
35677;SDS011;21791;42.828;74.582;2022-12-16T04:55:29;21.13;;;9.10;;
35677;SDS011;21791;42.828;74.582;2022-12-16T04:58:15;14.98;;;8.05;;
35677;SDS011;21791;42.828;74.582;2022-12-16T05:00:59;17.40;;;8.85;;
35677;SDS011;21791;42.828;74.582;2022-12-16T05:03:44;20.58;;;9.32;;
35677;SDS011;21791;42.828;74.582;2022-12-16T05:06:29;22.30;;;8.15;;
35677;SDS011;21791;42.828;74.582;2022-12-16T05:09:13;10.07;;;5.88;;
35677;SDS011;21791;42.828;74.582;2022-12-16T05:11:58;10.50;;;5.35;;
35677;SDS011;21791;42.828;74.582;2022-12-16T05:14:43;14.25;;;5.57;;
35677;SDS011;21791;42.828;74.582;2022-12-16T05:17:28;16.00;;;6.03;;
35677;SDS011;21791;42.828;74.582;2022-12-16T05:20:13;13.02;;;5.88;;
35677;SDS011;21791;42.828;74.582;2022-12-16T05:22:58;17.42;;;6.72;;
35677;SDS011;21791;42.828;74.582;2022-12-16T05:25:43;14.65;;;8.73;;
35677;SDS011;21791;42.828;74.582;2022-12-16T05:28:28;13.32;;;7.25;;
35677;SDS011;21791;42.828;74.582;2022-12-16T05:31:13;16.48;;;7.00;;
35677;SDS011;21791;42.828;74.582;2022-12-16T05:33:58;15.57;;;7.47;;
35677;SDS011;21791;42.828;74.582;2022-12-16T05:36:43;14.18;;;7.50;;
35677;SDS011;21791;42.828;74.582;2022-12-16T05:39:28;16.38;;;8.27;;
35677;SDS011;21791;42.828;74.582;2022-12-16T05:42:13;16.50;;;6.88;;
35677;SDS011;21791;42.828;74.582;2022-12-16T05:44:58;20.67;;;7.18;;
35677;SDS011;21791;42.828;74.582;2022-12-16T05:47:43;18.20;;;6.78;;
35677;SDS011;21791;42.828;74.582;2022-12-16T05:50:31;9.45;;;5.85;;
35677;SDS011;21791;42.828;74.582;2022-12-16T05:53:16;8.43;;;4.75;;
35677;SDS011;21791;42.828;74.582;2022-12-16T05:56:01;10.60;;;5.40;;
35677;SDS011;21791;42.828;74.582;2022-12-16T05:58:46;6.75;;;4.68;;
35677;SDS011;21791;42.828;74.582;2022-12-16T06:01:31;14.65;;;7.18;;
35677;SDS011;21791;42.828;74.582;2022-12-16T06:04:30;13.18;;;6.68;;
35677;SDS011;21791;42.828;74.582;2022-12-16T06:07:15;12.63;;;6.53;;
35677;SDS011;21791;42.828;74.582;2022-12-16T06:10:00;11.02;;;5.15;;
35677;SDS011;21791;42.828;74.582;2022-12-16T06:12:45;6.03;;;4.10;;
35677;SDS011;21791;42.828;74.582;2022-12-16T06:15:30;9.48;;;4.78;;
35677;SDS011;21791;42.828;74.582;2022-12-16T06:18:18;8.65;;;4.75;;
35677;SDS011;21791;42.828;74.582;2022-12-16T06:21:03;12.88;;;5.50;;
35677;SDS011;21791;42.828;74.582;2022-12-16T06:23:48;7.20;;;4.93;;
35677;SDS011;21791;42.828;74.582;2022-12-16T06:26:33;10.85;;;6.05;;
35677;SDS011;21791;42.828;74.582;2022-12-16T06:29:17;9.15;;;5.03;;
35677;SDS011;21791;42.828;74.582;2022-12-16T06:32:01;9.25;;;5.18;;
35677;SDS011;21791;42.828;74.582;2022-12-16T06:34:46;10.00;;;5.10;;
35677;SDS011;21791;42.828;74.582;2022-12-16T06:37:31;15.93;;;6.30;;
35677;SDS011;21791;42.828;74.582;2022-12-16T06:40:16;13.05;;;6.10;;
35677;SDS011;21791;42.828;74.582;2022-12-16T06:43:01;16.13;;;6.18;;
35677;SDS011;21791;42.828;74.582;2022-12-16T06:45:46;14.30;;;6.05;;
35677;SDS011;21791;42.828;74.582;2022-12-16T06:48:31;12.98;;;6.20;;
35677;SDS011;21791;42.828;74.582;2022-12-16T06:51:16;9.43;;;5.88;;
35677;SDS011;21791;42.828;74.582;2022-12-16T06:54:01;11.52;;;5.80;;
35677;SDS011;21791;42.828;74.582;2022-12-16T06:56:46;15.43;;;6.30;;
35677;SDS011;21791;42.828;74.582;2022-12-16T06:59:31;11.07;;;6.18;;
35677;SDS011;21791;42.828;74.582;2022-12-16T07:02:16;11.80;;;5.95;;
35677;SDS011;21791;42.828;74.582;2022-12-16T07:05:01;7.20;;;5.00;;
35677;SDS011;21791;42.828;74.582;2022-12-16T07:07:47;9.25;;;5.90;;
35677;SDS011;21791;42.828;74.582;2022-12-16T07:10:33;10.85;;;5.68;;
35677;SDS011;21791;42.828;74.582;2022-12-16T07:13:18;7.70;;;5.03;;
35677;SDS011;21791;42.828;74.582;2022-12-16T07:16:03;8.90;;;5.25;;
35677;SDS011;21791;42.828;74.582;2022-12-16T07:18:49;7.50;;;5.30;;
35677;SDS011;21791;42.828;74.582;2022-12-16T07:21:34;8.80;;;5.45;;
35677;SDS011;21791;42.828;74.582;2022-12-16T07:24:19;10.57;;;5.40;;
35677;SDS011;21791;42.828;74.582;2022-12-16T07:27:04;14.18;;;6.20;;
35677;SDS011;21791;42.828;74.582;2022-12-16T07:29:48;12.23;;;6.55;;
35677;SDS011;21791;42.828;74.582;2022-12-16T07:32:33;16.08;;;6.70;;
35677;SDS011;21791;42.828;74.582;2022-12-16T07:35:17;12.05;;;6.18;;
35677;SDS011;21791;42.828;74.582;2022-12-16T07:38:02;10.23;;;5.72;;
35677;SDS011;21791;42.828;74.582;2022-12-16T07:40:47;10.32;;;6.43;;
35677;SDS011;21791;42.828;74.582;2022-12-16T07:43:32;10.90;;;5.93;;
35677;SDS011;21791;42.828;74.582;2022-12-16T07:46:17;6.93;;;4.85;;
35677;SDS011;21791;42.828;74.582;2022-12-16T07:49:02;8.88;;;5.25;;
35677;SDS011;21791;42.828;74.582;2022-12-16T07:51:47;8.63;;;5.03;;
35677;SDS011;21791;42.828;74.582;2022-12-16T07:54:32;9.00;;;4.80;;
35677;SDS011;21791;42.828;74.582;2022-12-16T07:57:17;7.25;;;5.00;;
35677;SDS011;21791;42.828;74.582;2022-12-16T08:00:02;10.60;;;5.30;;
35677;SDS011;21791;42.828;74.582;2022-12-16T08:02:54;12.18;;;6.13;;
35677;SDS011;21791;42.828;74.582;2022-12-16T08:05:39;11.43;;;5.47;;
35677;SDS011;21791;42.828;74.582;2022-12-16T08:08:23;9.70;;;5.20;;
35677;SDS011;21791;42.828;74.582;2022-12-16T08:11:08;12.68;;;5.78;;
35677;SDS011;21791;42.828;74.582;2022-12-16T08:13:53;7.22;;;5.25;;
35677;SDS011;21791;42.828;74.582;2022-12-16T08:16:39;13.57;;;6.07;;
35677;SDS011;21791;42.828;74.582;2022-12-16T08:19:27;9.70;;;5.50;;
35677;SDS011;21791;42.828;74.582;2022-12-16T08:22:12;7.93;;;5.63;;
35677;SDS011;21791;42.828;74.582;2022-12-16T08:24:57;9.55;;;5.35;;
35677;SDS011;21791;42.828;74.582;2022-12-16T08:27:42;14.30;;;5.47;;
35677;SDS011;21791;42.828;74.582;2022-12-16T08:30:27;12.07;;;5.55;;
35677;SDS011;21791;42.828;74.582;2022-12-16T08:33:12;8.75;;;4.80;;
35677;SDS011;21791;42.828;74.582;2022-12-16T08:35:57;10.45;;;4.85;;
35677;SDS011;21791;42.828;74.582;2022-12-16T08:38:42;10.07;;;4.88;;
35677;SDS011;21791;42.828;74.582;2022-12-16T08:41:27;12.15;;;5.80;;
35677;SDS011;21791;42.828;74.582;2022-12-16T08:44:12;13.07;;;6.22;;
35677;SDS011;21791;42.828;74.582;2022-12-16T08:46:57;10.68;;;5.43;;
35677;SDS011;21791;42.828;74.582;2022-12-16T08:49:42;9.32;;;4.57;;
35677;SDS011;21791;42.828;74.582;2022-12-16T08:52:27;7.45;;;4.55;;
35677;SDS011;21791;42.828;74.582;2022-12-16T08:55:12;6.28;;;4.25;;
35677;SDS011;21791;42.828;74.582;2022-12-16T08:57:57;8.13;;;4.80;;
35677;SDS011;21791;42.828;74.582;2022-12-16T09:00:42;8.00;;;4.60;;
35677;SDS011;21791;42.828;74.582;2022-12-16T09:03:27;9.40;;;5.35;;
35677;SDS011;21791;42.828;74.582;2022-12-16T09:06:12;10.48;;;6.10;;
35677;SDS011;21791;42.828;74.582;2022-12-16T09:08:57;6.57;;;5.18;;
35677;SDS011;21791;42.828;74.582;2022-12-16T09:11:42;29.90;;;19.83;;
35677;SDS011;21791;42.828;74.582;2022-12-16T09:14:27;30.83;;;20.50;;
35677;SDS011;21791;42.828;74.582;2022-12-16T09:17:12;38.88;;;24.77;;
35677;SDS011;21791;42.828;74.582;2022-12-16T09:19:57;43.75;;;27.52;;
35677;SDS011;21791;42.828;74.582;2022-12-16T09:22:42;37.80;;;27.10;;
35677;SDS011;21791;42.828;74.582;2022-12-16T09:25:29;49.97;;;28.75;;
35677;SDS011;21791;42.828;74.582;2022-12-16T09:28:14;42.50;;;27.85;;
35677;SDS011;21791;42.828;74.582;2022-12-16T09:30:59;40.63;;;27.25;;
35677;SDS011;21791;42.828;74.582;2022-12-16T09:33:43;39.75;;;26.02;;
35677;SDS011;21791;42.828;74.582;2022-12-16T09:36:28;41.08;;;26.63;;
35677;SDS011;21791;42.828;74.582;2022-12-16T09:39:14;36.42;;;23.23;;
35677;SDS011;21791;42.828;74.582;2022-12-16T09:42:00;38.13;;;24.88;;
35677;SDS011;21791;42.828;74.582;2022-12-16T09:44:57;42.58;;;27.65;;
35677;SDS011;21791;42.828;74.582;2022-12-16T09:48:10;51.03;;;33.13;;
35677;SDS011;21791;42.828;74.582;2022-12-16T09:51:03;62.75;;;35.67;;
35677;SDS011;21791;42.828;74.582;2022-12-16T09:53:50;64.70;;;38.08;;
35677;SDS011;21791;42.828;74.582;2022-12-16T09:56:37;53.85;;;34.80;;
35677;SDS011;21791;42.828;74.582;2022-12-16T10:02:41;59.13;;;32.42;;
35677;SDS011;21791;42.828;74.582;2022-12-16T10:05:35;56.47;;;32.70;;
35677;SDS011;21791;42.828;74.582;2022-12-16T10:08:43;51.70;;;29.05;;
35677;SDS011;21791;42.828;74.582;2022-12-16T10:14:56;72.57;;;33.75;;
35677;SDS011;21791;42.828;74.582;2022-12-16T10:18:07;74.03;;;33.95;;
35677;SDS011;21791;42.828;74.582;2022-12-16T10:21:09;73.25;;;32.53;;
35677;SDS011;21791;42.828;74.582;2022-12-16T10:27:17;61.97;;;34.78;;
35677;SDS011;21791;42.828;74.582;2022-12-16T10:30:13;65.63;;;33.72;;
35677;SDS011;21791;42.828;74.582;2022-12-16T10:32:58;62.13;;;37.83;;
35677;SDS011;21791;42.828;74.582;2022-12-16T10:35:48;65.10;;;38.40;;
35677;SDS011;21791;42.828;74.582;2022-12-16T10:41:45;67.85;;;39.60;;
35677;SDS011;21791;42.828;74.582;2022-12-16T10:44:37;68.85;;;41.20;;
35677;SDS011;21791;42.828;74.582;2022-12-16T10:47:29;77.90;;;48.33;;
35677;SDS011;21791;42.828;74.582;2022-12-16T10:50:14;77.25;;;47.00;;
35677;SDS011;21791;42.828;74.582;2022-12-16T10:53:00;74.55;;;46.72;;
35677;SDS011;21791;42.828;74.582;2022-12-16T10:59:19;77.65;;;49.65;;
35677;SDS011;21791;42.828;74.582;2022-12-16T11:02:15;87.13;;;50.00;;
35677;SDS011;21791;42.828;74.582;2022-12-16T11:08:33;66.15;;;44.78;;
35677;SDS011;21791;42.828;74.582;2022-12-16T11:11:22;62.58;;;41.67;;
35677;SDS011;21791;42.828;74.582;2022-12-16T11:14:25;65.75;;;41.35;;
35677;SDS011;21791;42.828;74.582;2022-12-16T11:17:16;64.20;;;40.28;;
35677;SDS011;21791;42.828;74.582;2022-12-16T11:20:14;59.20;;;38.88;;
35677;SDS011;21791;42.828;74.582;2022-12-16T11:23:23;53.83;;;33.90;;
35677;SDS011;21791;42.828;74.582;2022-12-16T11:26:11;52.90;;;31.67;;
35677;SDS011;21791;42.828;74.582;2022-12-16T11:29:03;51.40;;;30.95;;
35677;SDS011;21791;42.828;74.582;2022-12-16T11:31:57;46.45;;;29.23;;
35677;SDS011;21791;42.828;74.582;2022-12-16T11:34:43;43.63;;;28.02;;
35677;SDS011;21791;42.828;74.582;2022-12-16T11:37:44;44.38;;;28.45;;
35677;SDS011;21791;42.828;74.582;2022-12-16T11:40:31;40.63;;;26.00;;
35677;SDS011;21791;42.828;74.582;2022-12-16T11:43:17;40.95;;;24.98;;
35677;SDS011;21791;42.828;74.582;2022-12-16T11:46:07;42.65;;;24.58;;
35677;SDS011;21791;42.828;74.582;2022-12-16T11:48:58;38.67;;;24.25;;
35677;SDS011;21791;42.828;74.582;2022-12-16T11:51:46;41.33;;;25.95;;
35677;SDS011;21791;42.828;74.582;2022-12-16T11:54:39;33.03;;;22.95;;
35677;SDS011;21791;42.828;74.582;2022-12-16T11:57:56;34.83;;;22.92;;
35677;SDS011;21791;42.828;74.582;2022-12-16T12:01:32;40.45;;;24.05;;
35677;SDS011;21791;42.828;74.582;2022-12-16T12:04:03;41.05;;;25.33;;
35677;SDS011;21791;42.828;74.582;2022-12-16T12:06:55;40.10;;;25.88;;
35677;SDS011;21791;42.828;74.582;2022-12-16T12:09:52;38.90;;;22.90;;
35677;SDS011;21791;42.828;74.582;2022-12-16T12:16:20;35.08;;;21.45;;
35677;SDS011;21791;42.828;74.582;2022-12-16T12:19:14;31.98;;;19.85;;
35677;SDS011;21791;42.828;74.582;2022-12-16T12:22:06;33.70;;;20.80;;
35677;SDS011;21791;42.828;74.582;2022-12-16T12:37:22;34.03;;;21.83;;
35677;SDS011;21791;42.828;74.582;2022-12-16T12:46:22;37.35;;;22.63;;
35677;SDS011;21791;42.828;74.582;2022-12-16T12:49:31;61.22;;;28.15;;
35677;SDS011;21791;42.828;74.582;2022-12-16T12:52:36;83.10;;;40.58;;
35677;SDS011;21791;42.828;74.582;2022-12-16T12:55:42;96.80;;;48.78;;
35677;SDS011;21791;42.828;74.582;2022-12-16T12:58:41;121.47;;;63.40;;
35677;SDS011;21791;42.828;74.582;2022-12-16T13:01:29;113.30;;;59.90;;
35677;SDS011;21791;42.828;74.582;2022-12-16T13:04:17;96.03;;;46.65;;
35677;SDS011;21791;42.828;74.582;2022-12-16T13:07:05;110.13;;;59.67;;
35677;SDS011;21791;42.828;74.582;2022-12-16T13:16:03;98.13;;;50.17;;
35677;SDS011;21791;42.828;74.582;2022-12-16T13:22:31;101.30;;;55.25;;
35677;SDS011;21791;42.828;74.582;2022-12-16T13:25:32;138.57;;;68.88;;
35677;SDS011;21791;42.828;74.582;2022-12-16T13:28:27;116.07;;;60.13;;
35677;SDS011;21791;42.828;74.582;2022-12-16T13:31:23;132.90;;;75.78;;
35677;SDS011;21791;42.828;74.582;2022-12-16T13:37:04;123.95;;;71.75;;
35677;SDS011;21791;42.828;74.582;2022-12-16T13:43:03;127.07;;;75.10;;
35677;SDS011;21791;42.828;74.582;2022-12-16T13:49:16;81.20;;;50.05;;
35677;SDS011;21791;42.828;74.582;2022-12-16T13:55:43;101.85;;;54.55;;
35677;SDS011;21791;42.828;74.582;2022-12-16T13:58:41;83.43;;;51.63;;
35677;SDS011;21791;42.828;74.582;2022-12-16T14:01:55;85.97;;;49.72;;
35677;SDS011;21791;42.828;74.582;2022-12-16T14:04:45;79.85;;;49.38;;
35677;SDS011;21791;42.828;74.582;2022-12-16T14:07:37;83.15;;;46.50;;
35677;SDS011;21791;42.828;74.582;2022-12-16T14:10:25;76.60;;;45.47;;
35677;SDS011;21791;42.828;74.582;2022-12-16T14:16:31;69.90;;;41.58;;
35677;SDS011;21791;42.828;74.582;2022-12-16T14:19:32;75.32;;;42.70;;
35677;SDS011;21791;42.828;74.582;2022-12-16T14:25:46;84.57;;;44.20;;
35677;SDS011;21791;42.828;74.582;2022-12-16T14:28:39;78.47;;;43.63;;
35677;SDS011;21791;42.828;74.582;2022-12-16T14:34:30;75.63;;;40.92;;
35677;SDS011;21791;42.828;74.582;2022-12-16T14:37:21;67.18;;;39.72;;
35677;SDS011;21791;42.828;74.582;2022-12-16T14:40:28;73.47;;;41.15;;
35677;SDS011;21791;42.828;74.582;2022-12-16T14:46:00;68.05;;;37.65;;
35677;SDS011;21791;42.828;74.582;2022-12-16T14:48:46;64.53;;;38.03;;
35677;SDS011;21791;42.828;74.582;2022-12-16T14:52:08;67.03;;;37.30;;
35677;SDS011;21791;42.828;74.582;2022-12-16T14:54:43;71.88;;;39.78;;
35677;SDS011;21791;42.828;74.582;2022-12-16T14:57:31;78.32;;;41.95;;
35677;SDS011;21791;42.828;74.582;2022-12-16T15:00:17;67.90;;;36.50;;
35677;SDS011;21791;42.828;74.582;2022-12-16T15:06:02;85.75;;;47.58;;
35677;SDS011;21791;42.828;74.582;2022-12-16T15:09:16;72.05;;;38.85;;
35677;SDS011;21791;42.828;74.582;2022-12-16T15:12:14;66.50;;;37.90;;
35677;SDS011;21791;42.828;74.582;2022-12-16T15:15:06;56.35;;;34.47;;
35677;SDS011;21791;42.828;74.582;2022-12-16T15:17:57;57.78;;;33.03;;
35677;SDS011;21791;42.828;74.582;2022-12-16T15:20:53;67.68;;;38.00;;
35677;SDS011;21791;42.828;74.582;2022-12-16T15:23:39;59.92;;;36.00;;
35677;SDS011;21791;42.828;74.582;2022-12-16T15:26:29;59.65;;;32.65;;
35677;SDS011;21791;42.828;74.582;2022-12-16T15:38:33;38.20;;;23.38;;
35677;SDS011;21791;42.828;74.582;2022-12-16T15:41:33;32.13;;;18.95;;
35677;SDS011;21791;42.828;74.582;2022-12-16T15:47:18;46.53;;;25.05;;
35677;SDS011;21791;42.828;74.582;2022-12-16T15:50:15;40.17;;;21.83;;
35677;SDS011;21791;42.828;74.582;2022-12-16T15:53:16;55.63;;;26.75;;
35677;SDS011;21791;42.828;74.582;2022-12-16T15:56:26;46.67;;;24.35;;
35677;SDS011;21791;42.828;74.582;2022-12-16T15:59:31;37.60;;;21.70;;
35677;SDS011;21791;42.828;74.582;2022-12-16T16:02:35;37.03;;;20.50;;
35677;SDS011;21791;42.828;74.582;2022-12-16T16:05:22;30.02;;;17.70;;
35677;SDS011;21791;42.828;74.582;2022-12-16T16:08:09;32.08;;;18.50;;
35677;SDS011;21791;42.828;74.582;2022-12-16T16:10:54;31.55;;;19.38;;
35677;SDS011;21791;42.828;74.582;2022-12-16T16:13:42;37.38;;;22.05;;
35677;SDS011;21791;42.828;74.582;2022-12-16T16:16:27;33.22;;;19.73;;
35677;SDS011;21791;42.828;74.582;2022-12-16T16:19:19;34.67;;;19.35;;
35677;SDS011;21791;42.828;74.582;2022-12-16T16:22:10;38.03;;;18.33;;
35677;SDS011;21791;42.828;74.582;2022-12-16T16:24:57;35.10;;;18.67;;
35677;SDS011;21791;42.828;74.582;2022-12-16T16:27:43;30.35;;;17.58;;
35677;SDS011;21791;42.828;74.582;2022-12-16T16:30:29;30.85;;;16.45;;
35677;SDS011;21791;42.828;74.582;2022-12-16T16:33:15;31.45;;;17.30;;
35677;SDS011;21791;42.828;74.582;2022-12-16T16:36:00;31.48;;;16.67;;
35677;SDS011;21791;42.828;74.582;2022-12-16T16:38:52;31.23;;;16.65;;
35677;SDS011;21791;42.828;74.582;2022-12-16T16:41:37;27.33;;;15.52;;
35677;SDS011;21791;42.828;74.582;2022-12-16T16:44:24;27.60;;;16.63;;
35677;SDS011;21791;42.828;74.582;2022-12-16T16:47:13;28.10;;;16.02;;
35677;SDS011;21791;42.828;74.582;2022-12-16T16:50:01;28.95;;;15.73;;
35677;SDS011;21791;42.828;74.582;2022-12-16T16:52:46;34.17;;;17.23;;
35677;SDS011;21791;42.828;74.582;2022-12-16T16:55:33;35.00;;;16.38;;
35677;SDS011;21791;42.828;74.582;2022-12-16T16:58:27;33.58;;;17.45;;
35677;SDS011;21791;42.828;74.582;2022-12-16T17:01:17;29.75;;;16.25;;
35677;SDS011;21791;42.828;74.582;2022-12-16T17:04:02;38.60;;;18.48;;
35677;SDS011;21791;42.828;74.582;2022-12-16T17:06:48;37.58;;;18.48;;
35677;SDS011;21791;42.828;74.582;2022-12-16T17:09:34;30.98;;;17.50;;
35677;SDS011;21791;42.828;74.582;2022-12-16T17:12:25;37.90;;;17.98;;
35677;SDS011;21791;42.828;74.582;2022-12-16T17:17:58;32.58;;;16.35;;
35677;SDS011;21791;42.828;74.582;2022-12-16T17:20:44;28.17;;;16.58;;
35677;SDS011;21791;42.828;74.582;2022-12-16T17:23:29;31.48;;;16.85;;
35677;SDS011;21791;42.828;74.582;2022-12-16T17:26:15;35.83;;;16.20;;
35677;SDS011;21791;42.828;74.582;2022-12-16T17:29:00;30.35;;;15.27;;
35677;SDS011;21791;42.828;74.582;2022-12-16T17:31:45;26.15;;;14.77;;
35677;SDS011;21791;42.828;74.582;2022-12-16T17:34:30;22.45;;;13.25;;
35677;SDS011;21791;42.828;74.582;2022-12-16T17:37:16;26.38;;;14.38;;
35677;SDS011;21791;42.828;74.582;2022-12-16T17:40:01;28.25;;;13.95;;
35677;SDS011;21791;42.828;74.582;2022-12-16T17:42:47;24.50;;;12.70;;
35677;SDS011;21791;42.828;74.582;2022-12-16T17:45:32;20.50;;;12.60;;
35677;SDS011;21791;42.828;74.582;2022-12-16T17:48:34;22.23;;;12.50;;
35677;SDS011;21791;42.828;74.582;2022-12-16T17:51:24;19.45;;;10.60;;
35677;SDS011;21791;42.828;74.582;2022-12-16T17:54:09;24.52;;;13.30;;
35677;SDS011;21791;42.828;74.582;2022-12-16T17:56:54;27.67;;;13.07;;
35677;SDS011;21791;42.828;74.582;2022-12-16T17:59:39;23.05;;;10.95;;
35677;SDS011;21791;42.828;74.582;2022-12-16T18:02:24;18.88;;;11.63;;